Navigator Spirit — C6WL4 — position and weather

sailwx.info

Track history (hours):
 
Tides and Currents Weather Stations Pressure Air Temp Water Temp Dewpoint Dewpoint Depression Visibility Wind Speed Wind Dir Waves Ship Positions

Navigator Spirit

Last reported at 2016-Apr-25 17:04 UTC. Time now 2016-May-31 00:16 UTC.
Position N 57°51' E 010°23'.
Warning: this ship's position is 35 days out of date.

Length 241 m; draft 14.8 m.

Type: Tanker. MMSI: 309198000.

Date/timePositionNaut miles runAvg speedWind from/ knotsBaromVisibWave heightAir tempDewpointWater temp
2016-Apr-25 17:04N 57°51' E 010°23'713.7
2016-Apr-25 16:34N 57°52' E 010°36'1211.9
2016-Apr-25 15:33N 57°46' E 010°55'1 1.4
2016-Apr-25 14:33N 57°44' E 010°55'6 6.4
2016-Apr-25 13:33N 57°41' E 011°06'1313.1
2016-Apr-25 12:34N 57°35' E 011°27'6 6.3
2016-Apr-25 11:31N 57°34' E 011°39'0 0.0
2016-Apr-25 10:31N 57°34' E 011°39'0 0.0
2016-Apr-25 09:31N 57°34' E 011°39'0 0.0
2016-Apr-25 08:31N 57°34' E 011°39'0 0.1
2016-Apr-25 07:31N 57°34' E 011°39'0 0.0
2016-Apr-25 06:31N 57°34' E 011°39'0 0.1
2016-Apr-25 05:31N 57°34' E 011°39'0 0.1
2016-Apr-25 04:31N 57°34' E 011°39'0 0.0
2016-Apr-25 03:31N 57°34' E 011°39'0 0.0
2016-Apr-25 02:31N 57°34' E 011°39'0 0.0
2016-Apr-25 01:31N 57°34' E 011°39'0 0.0
2016-Apr-25 00:31N 57°34' E 011°39'0 0.0
2016-Apr-24 23:31N 57°34' E 011°39'0 0.2
2016-Apr-24 22:31N 57°34' E 011°39'0 0.1
2016-Apr-24 21:31N 57°34' E 011°39'0 0.0
2016-Apr-24 20:31N 57°34' E 011°39'0 0.0
2016-Apr-24 19:31N 57°34' E 011°39'0 0.0
2016-Apr-24 18:31N 57°34' E 011°39'0 0.1
2016-Apr-24 17:31N 57°34' E 011°39'0 0.0
2016-Apr-24 16:31N 57°34' E 011°39'0 0.0
2016-Apr-24 15:31N 57°34' E 011°39'0 0.1
2016-Apr-24 14:31N 57°34' E 011°39'0 0.2
2016-Apr-24 13:31N 57°34' E 011°39'0 0.1
2016-Apr-24 12:31N 57°34' E 011°39'0 0.1
2016-Apr-24 11:31N 57°34' E 011°39'0 0.0
2016-Apr-24 10:31N 57°34' E 011°39'0 0.0
2016-Apr-24 09:31N 57°34' E 011°39'0 0.0
2016-Apr-24 08:31N 57°34' E 011°39'0 0.0
2016-Apr-24 07:31N 57°34' E 011°39'0 0.0
2016-Apr-24 06:31N 57°34' E 011°39'0 0.0
2016-Apr-24 05:31N 57°34' E 011°39'0 0.1
2016-Apr-24 04:33N 57°34' E 011°39'2 2.1
2016-Apr-24 03:33N 57°32' E 011°39'1010.0
2016-Apr-24 02:33N 57°22' E 011°37'1110.7
2016-Apr-24 01:33N 57°11' E 011°39'1111.1
2016-Apr-24 00:33N 57°00' E 011°44'1110.7
2016-Apr-23 23:33N 56°50' E 011°51'9 9.2
2016-Apr-23 22:33N 56°41' E 011°49'4210.2
2016-Apr-23 18:27N 56°05' E 011°09'43 8.6
2016-Apr-23 13:30N 55°23' E 011°02'8 9.0
2016-Apr-23 12:33N 55°15' E 011°05'7 7.2
2016-Apr-23 11:33N 55°08' E 010°60'10 9.9
2016-Apr-23 10:33N 54°58' E 010°58'10 9.9
2016-Apr-23 09:33N 54°50' E 010°50'10 9.6
2016-Apr-23 08:33N 54°40' E 010°48'10 9.8
2016-Apr-23 07:33N 54°36' E 011°03'10 9.8
2016-Apr-23 06:33N 54°33' E 011°20'1010.2
2016-Apr-23 05:33N 54°29' E 011°36'1010.2
2016-Apr-23 04:33N 54°26' E 011°53'9 9.2
2016-Apr-23 03:33N 54°27' E 012°08'8 8.4
2016-Apr-23 02:33N 54°34' E 012°16'8 8.0
2016-Apr-23 01:33N 54°39' E 012°25'8 7.9
2016-Apr-23 00:33N 54°44' E 012°37'4010.1
2016-Apr-22 20:32N 55°00' E 013°41'1110.8
2016-Apr-22 19:33N 55°05' E 013°58'1110.8
2016-Apr-22 18:33N 55°09' E 014°15'1110.6
2016-Apr-22 17:33N 55°13' E 014°32'1010.1
2016-Apr-22 16:33N 55°20' E 014°45'7 7.4
2016-Apr-22 15:33N 55°20' E 014°58'1212.4
2016-Apr-22 14:33N 55°27' E 015°17'1312.8
2016-Apr-22 13:33N 55°33' E 015°37'32312.2
2016-Apr-21 11:11N 59°29' E 022°27'812.7
2016-Apr-21 10:32N 59°32' E 022°42'1313.0
2016-Apr-21 09:33N 59°35' E 023°06'1313.1
2016-Apr-21 08:33N 59°39' E 023°31'1312.8
2016-Apr-21 07:33N 59°43' E 023°55'7812.8
2016-Apr-21 01:27N 60°00' E 026°26'910.4
2016-Apr-21 00:33N 60°01' E 026°45'1510.1
2016-Apr-20 23:07N 60°02' E 027°13'610.8
2016-Apr-20 22:32N 60°05' E 027°25'1010.7
2016-Apr-20 21:33N 60°11' E 027°42'1211.8
2016-Apr-20 20:33N 60°09' E 028°06'1211.7
2016-Apr-20 19:33N 60°08' E 028°29'9 8.7
2016-Apr-20 18:33N 60°12' E 028°45'8 0.2
2016-Apr-19 05:30N 60°20' E 028°41'8 6.8
2016-Apr-19 04:18N 60°12' E 028°44'6 8.0
2016-Apr-19 03:31N 60°06' E 028°38'6 6.7
2016-Apr-19 02:33N 60°02' E 028°29'1 0.8
2016-Apr-19 01:28N 60°01' E 028°27'0 0.0
2016-Apr-19 00:28N 60°01' E 028°27'0 0.0
2016-Apr-18 23:28N 60°01' E 028°27'0 0.0
2016-Apr-18 22:31N 60°01' E 028°27'0 0.0
2016-Apr-18 21:31N 60°01' E 028°27'0 0.1
2016-Apr-18 20:31N 60°01' E 028°27'0 0.0
2016-Apr-18 19:31N 60°01' E 028°27'0 0.0
2016-Apr-18 18:31N 60°01' E 028°27'0 0.0
2016-Apr-18 17:31N 60°01' E 028°27'0 0.0
2016-Apr-18 16:31N 60°01' E 028°27'0 0.0
2016-Apr-18 15:22N 60°01' E 028°27'0 0.0
2016-Apr-18 14:25N 60°01' E 028°27'0 0.0
2016-Apr-18 13:25N 60°01' E 028°27'0 0.0
2016-Apr-18 12:25N 60°01' E 028°27'0 0.0
2016-Apr-18 11:28N 60°01' E 028°27'0 0.0
2016-Apr-18 10:28N 60°01' E 028°27'0 0.0
2016-Apr-18 09:28N 60°01' E 028°27'0 0.0
2016-Apr-18 08:31N 60°01' E 028°27'0 0.0
2016-Apr-18 07:31N 60°01' E 028°27'0 0.1
2016-Apr-18 06:31N 60°01' E 028°27'1 0.6
2016-Apr-18 05:33N 60°02' E 028°27'7 6.6
2016-Apr-18 04:33N 60°07' E 028°18'8 7.9
2016-Apr-18 03:33N 60°09' E 028°03'8 7.9
2016-Apr-18 02:33N 60°11' E 027°47'8 8.1
2016-Apr-18 01:33N 60°07' E 027°33'8 8.1
2016-Apr-18 00:33N 60°02' E 027°19'8 8.0
2016-Apr-17 23:32N 59°58' E 027°05'8 7.8
2016-Apr-17 22:33N 59°59' E 026°50'8 8.0
2016-Apr-17 21:33N 59°59' E 026°34'8 8.1
2016-Apr-17 20:33N 59°56' E 026°18'72 7.1
2016-Apr-17 10:28N 59°39' E 024°00'8 8.1
2016-Apr-17 09:27N 59°36' E 023°45'7 7.5
2016-Apr-17 08:33N 59°33' E 023°33'2 2.4
2016-Apr-17 07:33N 59°33' E 023°28'5 4.8
2016-Apr-17 06:25N 59°32' E 023°18'280 8.2
2016-Apr-15 20:18N 55°56' E 017°44'10 9.6
2016-Apr-15 19:18N 55°54' E 017°28'9 8.2
2016-Apr-15 18:10N 55°51' E 017°12'5 7.5
2016-Apr-15 17:33N 55°50' E 017°04'  
Track history (hours):
 
Tides and Currents Weather Stations Pressure Air Temp Water Temp Dewpoint Dewpoint Depression Visibility Wind Speed Wind Dir Waves Ship Positions

Navigator Spirit

Last reported at 2016-Apr-25 17:04 UTC. Time now 2016-May-31 00:16 UTC.
Position N 57°51' E 010°23'.
Warning: this ship's position is 35 days out of date.

Length 241 m; draft 14.8 m.

Type: Tanker. MMSI: 309198000.

Date/timePositionNaut miles runAvg speedWind from/ knotsBaromVisibWave heightAir tempDewpointWater temp
2016-Apr-25 17:04N 57°51' E 010°23'713.7
2016-Apr-25 16:34N 57°52' E 010°36'1211.9
2016-Apr-25 15:33N 57°46' E 010°55'1 1.4
2016-Apr-25 14:33N 57°44' E 010°55'6 6.4
2016-Apr-25 13:33N 57°41' E 011°06'1313.1
2016-Apr-25 12:34N 57°35' E 011°27'6 6.3
2016-Apr-25 11:31N 57°34' E 011°39'0 0.0
2016-Apr-25 10:31N 57°34' E 011°39'0 0.0
2016-Apr-25 09:31N 57°34' E 011°39'0 0.0
2016-Apr-25 08:31N 57°34' E 011°39'0 0.1
2016-Apr-25 07:31N 57°34' E 011°39'0 0.0
2016-Apr-25 06:31N 57°34' E 011°39'0 0.1
2016-Apr-25 05:31N 57°34' E 011°39'0 0.1
2016-Apr-25 04:31N 57°34' E 011°39'0 0.0
2016-Apr-25 03:31N 57°34' E 011°39'0 0.0
2016-Apr-25 02:31N 57°34' E 011°39'0 0.0
2016-Apr-25 01:31N 57°34' E 011°39'0 0.0
2016-Apr-25 00:31N 57°34' E 011°39'0 0.0
2016-Apr-24 23:31N 57°34' E 011°39'0 0.2
2016-Apr-24 22:31N 57°34' E 011°39'0 0.1
2016-Apr-24 21:31N 57°34' E 011°39'0 0.0
2016-Apr-24 20:31N 57°34' E 011°39'0 0.0
2016-Apr-24 19:31N 57°34' E 011°39'0 0.0
2016-Apr-24 18:31N 57°34' E 011°39'0 0.1
2016-Apr-24 17:31N 57°34' E 011°39'0 0.0
2016-Apr-24 16:31N 57°34' E 011°39'0 0.0
2016-Apr-24 15:31N 57°34' E 011°39'0 0.1
2016-Apr-24 14:31N 57°34' E 011°39'0 0.2
2016-Apr-24 13:31N 57°34' E 011°39'0 0.1
2016-Apr-24 12:31N 57°34' E 011°39'0 0.1
2016-Apr-24 11:31N 57°34' E 011°39'0 0.0
2016-Apr-24 10:31N 57°34' E 011°39'0 0.0
2016-Apr-24 09:31N 57°34' E 011°39'0 0.0
2016-Apr-24 08:31N 57°34' E 011°39'0 0.0
2016-Apr-24 07:31N 57°34' E 011°39'0 0.0
2016-Apr-24 06:31N 57°34' E 011°39'0 0.0
2016-Apr-24 05:31N 57°34' E 011°39'0 0.1
2016-Apr-24 04:33N 57°34' E 011°39'2 2.1
2016-Apr-24 03:33N 57°32' E 011°39'1010.0
2016-Apr-24 02:33N 57°22' E 011°37'1110.7
2016-Apr-24 01:33N 57°11' E 011°39'1111.1
2016-Apr-24 00:33N 57°00' E 011°44'1110.7
2016-Apr-23 23:33N 56°50' E 011°51'9 9.2
2016-Apr-23 22:33N 56°41' E 011°49'4210.2
2016-Apr-23 18:27N 56°05' E 011°09'43 8.6
2016-Apr-23 13:30N 55°23' E 011°02'8 9.0
2016-Apr-23 12:33N 55°15' E 011°05'7 7.2
2016-Apr-23 11:33N 55°08' E 010°60'10 9.9
2016-Apr-23 10:33N 54°58' E 010°58'10 9.9
2016-Apr-23 09:33N 54°50' E 010°50'10 9.6
2016-Apr-23 08:33N 54°40' E 010°48'10 9.8
2016-Apr-23 07:33N 54°36' E 011°03'10 9.8
2016-Apr-23 06:33N 54°33' E 011°20'1010.2
2016-Apr-23 05:33N 54°29' E 011°36'1010.2
2016-Apr-23 04:33N 54°26' E 011°53'9 9.2
2016-Apr-23 03:33N 54°27' E 012°08'8 8.4
2016-Apr-23 02:33N 54°34' E 012°16'8 8.0
2016-Apr-23 01:33N 54°39' E 012°25'8 7.9
2016-Apr-23 00:33N 54°44' E 012°37'4010.1
2016-Apr-22 20:32N 55°00' E 013°41'1110.8
2016-Apr-22 19:33N 55°05' E 013°58'1110.8
2016-Apr-22 18:33N 55°09' E 014°15'1110.6
2016-Apr-22 17:33N 55°13' E 014°32'1010.1
2016-Apr-22 16:33N 55°20' E 014°45'7 7.4
2016-Apr-22 15:33N 55°20' E 014°58'1212.4
2016-Apr-22 14:33N 55°27' E 015°17'1312.8
2016-Apr-22 13:33N 55°33' E 015°37'32312.2
2016-Apr-21 11:11N 59°29' E 022°27'812.7
2016-Apr-21 10:32N 59°32' E 022°42'1313.0
2016-Apr-21 09:33N 59°35' E 023°06'1313.1
2016-Apr-21 08:33N 59°39' E 023°31'1312.8
2016-Apr-21 07:33N 59°43' E 023°55'7812.8
2016-Apr-21 01:27N 60°00' E 026°26'910.4
2016-Apr-21 00:33N 60°01' E 026°45'1510.1
2016-Apr-20 23:07N 60°02' E 027°13'610.8
2016-Apr-20 22:32N 60°05' E 027°25'1010.7
2016-Apr-20 21:33N 60°11' E 027°42'1211.8
2016-Apr-20 20:33N 60°09' E 028°06'1211.7
2016-Apr-20 19:33N 60°08' E 028°29'9 8.7
2016-Apr-20 18:33N 60°12' E 028°45'8 0.2
2016-Apr-19 05:30N 60°20' E 028°41'8 6.8
2016-Apr-19 04:18N 60°12' E 028°44'6 8.0
2016-Apr-19 03:31N 60°06' E 028°38'6 6.7
2016-Apr-19 02:33N 60°02' E 028°29'1 0.8
2016-Apr-19 01:28N 60°01' E 028°27'0 0.0
2016-Apr-19 00:28N 60°01' E 028°27'0 0.0
2016-Apr-18 23:28N 60°01' E 028°27'0 0.0
2016-Apr-18 22:31N 60°01' E 028°27'0 0.0
2016-Apr-18 21:31N 60°01' E 028°27'0 0.1
2016-Apr-18 20:31N 60°01' E 028°27'0 0.0
2016-Apr-18 19:31N 60°01' E 028°27'0 0.0
2016-Apr-18 18:31N 60°01' E 028°27'0 0.0
2016-Apr-18 17:31N 60°01' E 028°27'0 0.0
2016-Apr-18 16:31N 60°01' E 028°27'0 0.0
2016-Apr-18 15:22N 60°01' E 028°27'0 0.0
2016-Apr-18 14:25N 60°01' E 028°27'0 0.0
2016-Apr-18 13:25N 60°01' E 028°27'0 0.0
2016-Apr-18 12:25N 60°01' E 028°27'0 0.0
2016-Apr-18 11:28N 60°01' E 028°27'0 0.0
2016-Apr-18 10:28N 60°01' E 028°27'0 0.0
2016-Apr-18 09:28N 60°01' E 028°27'0 0.0
2016-Apr-18 08:31N 60°01' E 028°27'0 0.0
2016-Apr-18 07:31N 60°01' E 028°27'0 0.1
2016-Apr-18 06:31N 60°01' E 028°27'1 0.6
2016-Apr-18 05:33N 60°02' E 028°27'7 6.6
2016-Apr-18 04:33N 60°07' E 028°18'8 7.9
2016-Apr-18 03:33N 60°09' E 028°03'8 7.9
2016-Apr-18 02:33N 60°11' E 027°47'8 8.1
2016-Apr-18 01:33N 60°07' E 027°33'8 8.1
2016-Apr-18 00:33N 60°02' E 027°19'8 8.0
2016-Apr-17 23:32N 59°58' E 027°05'8 7.8
2016-Apr-17 22:33N 59°59' E 026°50'8 8.0
2016-Apr-17 21:33N 59°59' E 026°34'8 8.1
2016-Apr-17 20:33N 59°56' E 026°18'72 7.1
2016-Apr-17 10:28N 59°39' E 024°00'8 8.1
2016-Apr-17 09:27N 59°36' E 023°45'7 7.5
2016-Apr-17 08:33N 59°33' E 023°33'2 2.4
2016-Apr-17 07:33N 59°33' E 023°28'5 4.8
2016-Apr-17 06:25N 59°32' E 023°18'280 8.2
2016-Apr-15 20:18N 55°56' E 017°44'10 9.6
2016-Apr-15 19:18N 55°54' E 017°28'9 8.2
2016-Apr-15 18:10N 55°51' E 017°12'5 7.5
2016-Apr-15 17:33N 55°50' E 017°04'  

Dump ship's entire track history